Airfield :







YOU CAN JOIN US ON...

 
LOGIN :

Register | Disclaimer

   EN    FR    IT 

 









Legend :    VFR   Marginal VFR   IFR   Intensive IFR   Very Intensive IFR
Visi :
Ceiling :
>= 8 km
>= 3000ft
5 to 8 km
1000 to 3000 ft
1500m to 5 km
500 to 1000 ft
800 to 1500m
200 to 500 ft
< 800m
< 200 ft
Symbols :   Thunderstorms  Fog  Heavy snow  Heavy precipitations  Wind > 20 kt






- Airport Elevation : 328 ft


KGFL - Floyd Bennett Memorial

CURRENT METAR :
  • 291253Z AUTO 32007KT 10SM SCT030 M04/M10 A3009 RMK AO2 SLP199 T10441100

EXPIRED METARs :
  • 291153Z AUTO 32008KT 10SM BKN033 M04/M10 A3007 RMK AO2 SLP191 T10391100 11028 21039 53023
  • 291053Z AUTO 31008KT 10SM OVC037 M04/M09 A3004 RMK AO2 SLP180 T10391094

TAF KGFL
Valid from the 29 at 12:00 until the 30 at 12:00 UTC


291124Z 2912/3012 31006KT P6SM BKN035
FM291400 36006KT P6SM SCT035
FM292200 02005KT P6SM SKC



MET'MAP, your aeronautical weather chart ! - Copyright ORBIFLY December 2007 - Disclaimer

ORBIFLY MET'MAP TEAM :

Programming & Development : Alexandra Zaïnal
Concept & original design : Baudouin d'Aumeries
Assistance for programming : Marc-Olivier Méhu
Technical & hardware support : Manuel Goepfert

Contact : metmap@orbifly.com




SOURCES & CREDITS :

   NOAA